Cookies

¿Aceptas nuestras cookies?

Aceptar
VAM | Vabird-VBD

Virtual Vabird! Aerolínea Virtual de habla hispana, desde 2011




 INFORMACIÓN METAR y TAF
METAR FOR CYUB
ADDS - METARS form results

(1228 UTC 24 October 2021)
Data provider http://aviationweather.gov/metar/data/
 
Forecast for: CYUB (TUKTOYAKTUK , NT, CA)
Text: TAF CYUB 240041Z 2401/2405 30006KT P6SM SCT025 OVC080
Forecast period: 0100 to 0500 UTC 24 October 2021
Forecast type: FROM: standard forecast or significant change
Winds: from the WNW (300 degrees) at 7 MPH (6 knots; 3.1 m/s)
Visibility: 6 or more miles (10+ km)
Ceiling: 8000 feet AGL
Clouds: scattered clouds at 2500 feet AGL
overcast cloud deck at 8000 feet AGL
Weather: no significant weather forecast for this period
Text: TEMPO 2401/2405 BKN020 OVC060 RMK NXT FCST WILL BE ISSUED AT 241445Z
Forecast period: 0100 to 0500 UTC 24 October 2021
Forecast type: TEMPORARY: The following changes expected for less than half the time period
Visibility: missing
Ceiling: 2000 feet AGL
Clouds: broken clouds at 2000 feet AGL
overcast cloud deck at 6000 feet AGL
Weather: no significant weather forecast for this period

 MAPA DE AEROPUERTO

 INFORMACIÓN DE PISTA